Time;durP1;ratioP1;P1;durP2;ratioP2;P2;SDS_P1;SDS_P2;PMS_P1;PMS_P2;Temp;Humidity;BMP_temperature;BMP_pressure;BME280_temperature;BME280_humidity;BME280_pressure;Samples;Min_cycle;Max_cycle;Signal;HPM_P1;HPM_P2
2022/09/17 00:01:05;;;;;;;7.35;1.42;;;10.80;88.60;;;;;;4957507;29;20043;-56
2022/09/17 00:03:33;;;;;;;4.05;1.20;;;10.80;88.70;;;;;;4958156;28;20043;-58
2022/09/17 00:06:00;;;;;;;4.03;1.08;;;10.80;89.10;;;;;;4957658;28;20059;-55
2022/09/17 00:08:26;;;;;;;3.88;1.00;;;10.80;89.30;;;;;;4958191;28;20043;-59
2022/09/17 00:10:53;;;;;;;4.40;1.30;;;10.80;89.40;;;;;;4964450;28;20043;-58
2022/09/17 00:13:20;;;;;;;6.45;1.50;;;10.80;89.60;;;;;;4975261;28;20042;-59
2022/09/17 00:15:47;;;;;;;6.15;1.33;;;10.70;89.70;;;;;;4977396;28;20047;-59
2022/09/17 00:18:13;;;;;;;3.70;1.13;;;10.70;89.80;;;;;;4975829;28;20123;-58
2022/09/17 00:20:41;;;;;;;5.95;1.83;;;10.80;89.60;;;;;;4976557;28;20047;-58
2022/09/17 00:23:08;;;;;;;4.60;1.10;;;10.70;89.80;;;;;;4974917;28;20405;-58
2022/09/17 00:25:35;;;;;;;6.53;1.33;;;10.70;89.70;;;;;;4976785;28;20054;-55
2022/09/17 00:28:01;;;;;;;6.00;1.10;;;10.70;89.70;;;;;;4976966;28;20039;-57
2022/09/17 00:30:28;;;;;;;4.95;1.48;;;10.70;90.00;;;;;;4975124;28;20050;-57
2022/09/17 00:32:56;;;;;;;5.30;1.42;;;10.70;90.00;;;;;;4976550;28;20045;-57
2022/09/17 00:35:23;;;;;;;4.88;1.02;;;10.70;90.10;;;;;;4976560;28;20047;-57
2022/09/17 00:37:50;;;;;;;3.50;1.10;;;10.70;90.10;;;;;;4976759;28;20057;-56
2022/09/17 00:40:16;;;;;;;3.50;0.90;;;10.60;90.20;;;;;;4976696;28;20130;-57
2022/09/17 00:42:44;;;;;;;6.10;1.10;;;10.60;90.30;;;;;;4976754;28;20094;-58
2022/09/17 00:45:10;;;;;;;6.22;1.60;;;10.60;90.20;;;;;;4976617;28;20046;-56
2022/09/17 00:47:38;;;;;;;6.95;1.38;;;10.60;90.20;;;;;;4976182;28;20049;-53
2022/09/17 00:50:05;;;;;;;4.78;1.20;;;10.60;90.20;;;;;;4976302;28;20047;-56
2022/09/17 00:52:31;;;;;;;8.65;1.10;;;10.60;90.20;;;;;;4976433;28;20053;-56
2022/09/17 00:54:58;;;;;;;6.45;1.27;;;10.50;90.00;;;;;;4976054;28;20050;-58
2022/09/17 00:57:25;;;;;;;4.78;1.00;;;10.50;90.10;;;;;;4976350;28;20042;-54
2022/09/17 00:59:51;;;;;;;6.22;1.08;;;10.50;90.10;;;;;;4976440;28;20047;-59
2022/09/17 01:02:18;;;;;;;7.25;1.02;;;10.50;90.00;;;;;;4976079;28;20043;-58
2022/09/17 01:04:45;;;;;;;8.88;1.45;;;10.50;90.30;;;;;;4976016;28;20474;-57
2022/09/17 01:07:12;;;;;;;4.13;1.00;;;10.50;90.40;;;;;;4976237;28;20401;-59
2022/09/17 01:09:38;;;;;;;4.30;1.20;;;10.50;90.40;;;;;;4975844;28;20093;-57
2022/09/17 01:12:05;;;;;;;4.45;1.40;;;10.40;90.50;;;;;;4975452;28;20050;-54
2022/09/17 01:14:32;;;;;;;4.95;1.10;;;10.50;90.70;;;;;;4974323;28;20047;-57
2022/09/17 01:16:58;;;;;;;7.68;1.27;;;10.40;90.70;;;;;;4975817;28;20043;-59
2022/09/17 01:19:25;;;;;;;4.15;1.05;;;10.40;90.80;;;;;;4975532;28;20466;-59
2022/09/17 01:21:52;;;;;;;4.85;1.17;;;10.40;90.90;;;;;;4975936;28;20070;-55
2022/09/17 01:24:19;;;;;;;9.00;1.20;;;10.40;90.80;;;;;;4975333;28;20070;-56
2022/09/17 01:26:46;;;;;;;6.25;1.33;;;10.40;90.90;;;;;;4975304;28;20049;-58
2022/09/17 01:29:12;;;;;;;4.20;1.10;;;10.40;90.90;;;;;;4975581;28;20090;-58
2022/09/17 01:31:39;;;;;;;3.50;1.10;;;10.40;90.90;;;;;;4975571;28;20119;-57
2022/09/17 01:34:06;;;;;;;5.70;1.20;;;10.40;91.20;;;;;;4975656;28;20046;-55
2022/09/17 01:36:32;;;;;;;6.22;1.45;;;10.40;91.10;;;;;;4975558;28;20043;-59
2022/09/17 01:38:59;;;;;;;5.45;1.40;;;10.40;91.30;;;;;;4973961;28;20137;-57
2022/09/17 01:41:26;;;;;;;5.75;1.20;;;10.30;91.20;;;;;;4975261;28;20122;-57
2022/09/17 01:43:53;;;;;;;4.38;1.38;;;10.30;91.30;;;;;;4975320;28;20548;-60
2022/09/17 01:46:19;;;;;;;3.63;1.42;;;10.30;91.30;;;;;;4975262;28;20117;-57
2022/09/17 01:48:46;;;;;;;4.72;1.52;;;10.30;91.50;;;;;;4975270;28;20038;-55
2022/09/17 01:51:13;;;;;;;5.72;1.42;;;10.30;91.70;;;;;;4975303;28;20043;-58
2022/09/17 01:53:40;;;;;;;6.35;1.40;;;10.20;91.60;;;;;;4975061;28;20039;-57
2022/09/17 01:56:07;;;;;;;7.95;1.38;;;10.20;91.70;;;;;;4974929;28;20069;-55
2022/09/17 01:58:34;;;;;;;4.78;1.40;;;10.20;92.00;;;;;;4975017;28;20505;-58
2022/09/17 02:01:02;;;;;;;7.22;1.70;;;10.20;91.90;;;;;;4975032;28;20042;-57
2022/09/17 02:03:29;;;;;;;9.25;1.85;;;10.10;92.00;;;;;;4974990;28;20085;-56
2022/09/17 02:05:56;;;;;;;7.45;1.30;;;10.10;92.00;;;;;;4975333;28;20134;-59
2022/09/17 02:08:22;;;;;;;6.93;1.35;;;10.10;92.20;;;;;;4974775;28;20094;-56
2022/09/17 02:10:49;;;;;;;6.70;1.58;;;10.00;92.30;;;;;;4974564;28;20042;-56
2022/09/17 02:13:16;;;;;;;3.50;1.33;;;10.00;92.50;;;;;;4975170;28;20574;-57
2022/09/17 02:15:42;;;;;;;4.30;1.05;;;10.00;92.70;;;;;;4974826;28;20117;-55
2022/09/17 02:18:09;;;;;;;4.95;1.42;;;9.90;92.70;;;;;;4974676;28;20043;-54
2022/09/17 02:20:36;;;;;;;4.80;1.45;;;9.80;92.90;;;;;;4974845;28;20047;-57
2022/09/17 02:23:02;;;;;;;4.43;1.40;;;9.80;93.00;;;;;;4974532;28;20438;-55
2022/09/17 02:25:29;;;;;;;6.55;1.33;;;9.80;93.10;;;;;;4975219;28;20038;-54
2022/09/17 02:27:57;;;;;;;6.38;1.52;;;9.70;93.00;;;;;;4975103;28;20059;-53
2022/09/17 02:30:24;;;;;;;4.93;1.40;;;9.60;93.20;;;;;;4975134;28;20126;-56
2022/09/17 02:32:50;;;;;;;6.85;1.35;;;9.60;93.30;;;;;;4974581;28;20050;-54
2022/09/17 02:35:18;;;;;;;5.72;1.25;;;9.60;93.40;;;;;;4975139;28;20050;-56
2022/09/17 02:37:45;;;;;;;4.03;1.35;;;9.50;93.60;;;;;;4975037;28;20035;-57
2022/09/17 02:40:11;;;;;;;5.20;1.52;;;9.50;93.80;;;;;;4975090;28;20065;-55
2022/09/17 02:42:38;;;;;;;4.90;1.35;;;9.40;93.90;;;;;;4974714;28;20057;-56
2022/09/17 02:45:05;;;;;;;7.70;1.98;;;9.40;94.00;;;;;;4974357;28;20039;-56
2022/09/17 02:47:32;;;;;;;5.70;1.70;;;9.30;94.00;;;;;;4974398;28;20043;-59
2022/09/17 02:49:59;;;;;;;6.22;1.80;;;9.30;93.90;;;;;;4975038;28;20053;-57
2022/09/17 02:52:26;;;;;;;4.63;1.80;;;9.20;94.00;;;;;;4974989;28;20043;-59
2022/09/17 02:54:53;;;;;;;5.38;1.88;;;9.20;94.00;;;;;;4974468;28;20149;-55
2022/09/17 02:57:20;;;;;;;4.85;2.00;;;9.20;94.10;;;;;;4974927;28;20066;-57
2022/09/17 02:59:46;;;;;;;7.63;1.77;;;9.10;94.00;;;;;;4974320;28;20042;-57
2022/09/17 03:02:13;;;;;;;5.45;1.90;;;9.10;94.10;;;;;;4974905;28;20043;-57
2022/09/17 03:04:40;;;;;;;6.38;1.92;;;9.10;94.20;;;;;;4974780;28;20051;-57
2022/09/17 03:07:07;;;;;;;5.78;2.00;;;9.00;94.20;;;;;;4974901;28;20062;-55
2022/09/17 03:09:34;;;;;;;5.75;2.00;;;9.00;94.30;;;;;;4974314;28;20443;-57
2022/09/17 03:12:01;;;;;;;5.43;1.80;;;9.00;94.50;;;;;;4974342;28;20051;-58
2022/09/17 03:14:28;;;;;;;5.80;2.22;;;8.90;94.50;;;;;;4974439;28;20054;-54
2022/09/17 03:16:55;;;;;;;5.82;1.92;;;8.90;94.50;;;;;;4974618;28;20042;-53
2022/09/17 03:19:21;;;;;;;6.10;2.05;;;8.90;94.40;;;;;;4974541;28;20039;-57
2022/09/17 03:21:48;;;;;;;7.35;1.92;;;8.90;94.70;;;;;;4977938;28;20445;-58
2022/09/17 03:24:15;;;;;;;4.30;1.95;;;8.90;94.70;;;;;;4977802;28;20126;-55
2022/09/17 03:26:42;;;;;;;6.10;2.05;;;8.80;94.70;;;;;;4978022;28;20042;-55
2022/09/17 03:29:09;;;;;;;8.27;2.10;;;8.80;94.70;;;;;;4977750;28;20054;-54
2022/09/17 03:31:36;;;;;;;6.50;1.90;;;8.80;94.80;;;;;;4977543;28;20098;-54
2022/09/17 03:34:02;;;;;;;5.05;1.77;;;8.80;94.70;;;;;;4977360;28;20155;-59
2022/09/17 03:36:29;;;;;;;7.70;2.05;;;8.80;94.90;;;;;;4977799;28;20077;-54
2022/09/17 03:38:56;;;;;;;7.47;2.15;;;8.80;94.90;;;;;;4977874;28;20047;-58
2022/09/17 03:41:23;;;;;;;10.93;1.95;;;8.80;94.90;;;;;;4977733;28;20039;-54
2022/09/17 03:43:49;;;;;;;9.68;2.20;;;8.70;94.90;;;;;;4977284;28;20043;-58
2022/09/17 03:46:16;;;;;;;5.63;1.92;;;8.70;95.00;;;;;;4977775;28;20493;-59
2022/09/17 03:48:43;;;;;;;7.95;2.05;;;8.70;95.00;;;;;;4977434;28;20502;-58
2022/09/17 03:51:10;;;;;;;4.40;1.80;;;8.60;95.10;;;;;;4977165;28;20062;-59
2022/09/17 03:53:36;;;;;;;5.30;2.25;;;8.60;95.10;;;;;;4976066;28;20372;-56
2022/09/17 03:56:03;;;;;;;5.85;1.80;;;8.60;95.20;;;;;;4977465;28;20050;-57
2022/09/17 03:58:30;;;;;;;6.28;2.00;;;8.60;95.20;;;;;;4977661;28;20049;-55
2022/09/17 04:00:56;;;;;;;4.50;1.83;;;8.60;95.30;;;;;;4977695;28;20075;-57
2022/09/17 04:03:23;;;;;;;5.70;2.15;;;8.50;95.20;;;;;;4976948;28;20051;-58
2022/09/17 04:05:50;;;;;;;4.60;1.67;;;8.60;95.30;;;;;;4977108;28;20081;-55
2022/09/17 04:08:17;;;;;;;6.53;1.67;;;8.50;95.40;;;;;;4977174;28;20121;-58
2022/09/17 04:10:43;;;;;;;4.60;1.65;;;8.50;95.30;;;;;;4976995;28;20089;-55
2022/09/17 04:13:10;;;;;;;6.55;1.52;;;8.50;95.40;;;;;;4976927;28;20045;-53
2022/09/17 04:15:37;;;;;;;7.25;1.58;;;8.40;95.50;;;;;;4977336;28;20073;-56
2022/09/17 04:18:03;;;;;;;4.13;1.70;;;8.40;95.50;;;;;;4976841;28;20125;-58
2022/09/17 04:20:30;;;;;;;7.57;1.80;;;8.40;95.40;;;;;;4976863;28;20545;-56
2022/09/17 04:22:57;;;;;;;7.40;2.45;;;8.40;95.50;;;;;;4976818;28;20494;-56
2022/09/17 04:25:24;;;;;;;6.55;1.77;;;8.40;95.60;;;;;;4976540;28;20039;-55
2022/09/17 04:27:50;;;;;;;4.25;1.70;;;8.40;95.80;;;;;;4976633;28;20042;-54
2022/09/17 04:30:17;;;;;;;7.32;1.90;;;8.30;95.90;;;;;;4977083;28;20034;-59
2022/09/17 04:32:44;;;;;;;5.72;1.75;;;8.30;95.90;;;;;;4975833;28;20437;-56
2022/09/17 04:35:10;;;;;;;7.22;2.40;;;8.20;96.00;;;;;;4976692;28;20050;-58
2022/09/17 04:37:37;;;;;;;4.75;1.60;;;8.20;96.10;;;;;;4976665;28;20130;-56
2022/09/17 04:40:04;;;;;;;8.27;1.70;;;8.20;96.10;;;;;;4976643;28;20074;-55
2022/09/17 04:42:33;;;;;;;5.53;2.00;;;8.20;96.10;;;;;;4976876;28;20386;-56
2022/09/17 04:45:00;;;;;;;5.90;1.83;;;8.20;96.10;;;;;;4976125;28;20117;-57
2022/09/17 04:47:27;;;;;;;6.03;2.08;;;8.20;96.20;;;;;;4976179;28;20081;-54
2022/09/17 04:49:53;;;;;;;5.68;1.77;;;8.10;96.30;;;;;;4976086;28;20094;-55
2022/09/17 04:52:20;;;;;;;3.90;1.80;;;8.10;96.50;;;;;;4976493;28;20134;-56
2022/09/17 04:54:47;;;;;;;6.28;2.30;;;8.00;96.50;;;;;;4976465;28;20408;-57
2022/09/17 04:57:13;;;;;;;5.47;1.77;;;8.00;96.50;;;;;;4976436;28;20069;-54
2022/09/17 04:59:40;;;;;;;7.45;2.00;;;8.00;96.60;;;;;;4975821;28;20097;-57
2022/09/17 05:02:07;;;;;;;4.53;1.92;;;8.00;96.70;;;;;;4976171;28;20038;-57
2022/09/17 05:04:33;;;;;;;3.97;1.70;;;8.00;96.70;;;;;;4975986;28;20043;-53
2022/09/17 05:07:01;;;;;;;10.23;2.50;;;8.00;96.80;;;;;;4976172;28;20042;-57
2022/09/17 05:09:28;;;;;;;5.45;2.10;;;8.00;96.80;;;;;;4976468;28;20062;-57
2022/09/17 05:11:54;;;;;;;7.15;2.00;;;8.00;96.80;;;;;;4975664;28;20047;-55
2022/09/17 05:14:21;;;;;;;9.35;2.08;;;8.00;97.00;;;;;;4957970;28;20043;-56
2022/09/17 05:16:48;;;;;;;9.18;2.08;;;7.90;97.10;;;;;;4956753;28;20049;-56
2022/09/17 05:19:15;;;;;;;6.25;1.90;;;7.90;97.10;;;;;;4956391;28;20050;-53
2022/09/17 05:21:41;;;;;;;6.05;2.10;;;7.90;97.10;;;;;;4956928;28;20049;-56
2022/09/17 05:24:08;;;;;;;6.10;1.85;;;7.90;97.10;;;;;;4956449;28;20054;-57
2022/09/17 05:26:35;;;;;;;6.03;1.80;;;7.80;97.20;;;;;;4956719;28;20050;-56
2022/09/17 05:29:01;;;;;;;3.90;2.00;;;7.80;97.20;;;;;;4956344;29;20043;-58
2022/09/17 05:31:28;;;;;;;8.20;2.05;;;7.80;97.40;;;;;;4956147;28;20483;-56
2022/09/17 05:33:55;;;;;;;4.65;1.65;;;7.80;97.40;;;;;;4956269;28;20042;-56
2022/09/17 05:36:21;;;;;;;5.03;1.52;;;7.80;97.40;;;;;;4955209;28;20043;-52
2022/09/17 05:38:49;;;;;;;5.32;1.98;;;7.80;97.40;;;;;;4956483;28;20047;-55
2022/09/17 05:41:15;;;;;;;8.32;1.92;;;7.80;97.40;;;;;;4956186;28;20391;-54
2022/09/17 05:43:42;;;;;;;6.65;2.00;;;7.70;97.50;;;;;;4954947;28;20407;-57
2022/09/17 05:46:09;;;;;;;6.05;1.88;;;7.70;97.60;;;;;;4955966;28;20047;-56
2022/09/17 05:48:36;;;;;;;5.55;1.90;;;7.70;97.50;;;;;;4955800;29;20077;-57
2022/09/17 05:51:03;;;;;;;6.15;1.70;;;7.70;97.60;;;;;;4956188;28;20050;-55
2022/09/17 05:53:30;;;;;;;5.78;2.10;;;7.70;97.70;;;;;;4956213;28;20086;-57
2022/09/17 05:55:56;;;;;;;5.22;1.98;;;7.70;97.70;;;;;;4956342;28;20047;-57
2022/09/17 05:58:23;;;;;;;9.27;1.90;;;7.70;97.80;;;;;;4955820;28;20483;-57
2022/09/17 06:00:50;;;;;;;7.90;2.03;;;7.70;97.80;;;;;;4956144;28;20122;-56
2022/09/17 06:03:17;;;;;;;4.68;1.98;;;7.70;97.90;;;;;;4955938;28;20090;-54
2022/09/17 06:05:43;;;;;;;9.15;1.92;;;7.70;97.80;;;;;;4956097;28;20455;-54
2022/09/17 06:08:10;;;;;;;5.20;2.13;;;7.70;97.90;;;;;;4955566;28;20043;-59
2022/09/17 06:10:37;;;;;;;4.30;1.60;;;7.70;98.00;;;;;;4955793;28;20121;-57
2022/09/17 06:13:04;;;;;;;5.15;1.90;;;7.70;98.00;;;;;;4955353;28;20043;-59
2022/09/17 06:15:30;;;;;;;6.95;1.90;;;7.70;98.10;;;;;;4955016;28;20047;-56
2022/09/17 06:17:57;;;;;;;6.18;1.88;;;7.70;98.10;;;;;;4955364;28;20047;-58
2022/09/17 06:20:24;;;;;;;5.45;2.15;;;7.70;98.20;;;;;;4955864;28;20531;-59
2022/09/17 06:22:51;;;;;;;6.38;2.15;;;7.80;98.10;;;;;;4955605;28;20044;-55
2022/09/17 06:25:17;;;;;;;4.75;2.05;;;7.80;98.10;;;;;;4955970;28;20039;-56
2022/09/17 06:27:44;;;;;;;5.22;2.22;;;7.90;98.10;;;;;;4954107;29;20138;-60
2022/09/17 06:30:11;;;;;;;6.38;1.65;;;7.80;98.00;;;;;;4955573;28;20050;-59
2022/09/17 06:32:37;;;;;;;5.22;1.85;;;7.90;98.10;;;;;;4955813;28;20471;-58
2022/09/17 06:35:04;;;;;;;6.00;1.85;;;7.90;98.10;;;;;;4955863;28;20043;-58
2022/09/17 06:37:31;;;;;;;6.07;1.75;;;7.90;98.10;;;;;;4955852;28;20106;-56
2022/09/17 06:40:00;;;;;;;3.47;2.08;;;7.90;98.00;;;;;;4955300;28;20479;-57
2022/09/17 06:42:27;;;;;;;7.75;1.75;;;7.90;98.10;;;;;;4955612;28;20349;-58
2022/09/17 06:44:55;;;;;;;5.93;1.95;;;7.90;97.90;;;;;;4954245;28;20082;-55
2022/09/17 06:47:25;;;;;;;8.88;2.20;;;8.00;98.10;;;;;;4955598;29;20039;-54
2022/09/17 06:49:53;;;;;;;8.73;1.83;;;8.00;98.00;;;;;;4955732;28;20074;-58
2022/09/17 06:52:20;;;;;;;5.32;2.20;;;8.00;97.80;;;;;;4955127;28;20106;-54
2022/09/17 06:54:46;;;;;;;4.72;2.33;;;8.10;97.90;;;;;;4955878;28;20039;-55
2022/09/17 06:57:13;;;;;;;6.15;2.00;;;8.10;97.90;;;;;;4959508;28;20074;-55
2022/09/17 06:59:41;;;;;;;5.50;1.85;;;8.20;97.90;;;;;;4959092;29;20394;-56
2022/09/17 07:02:08;;;;;;;6.22;1.98;;;8.30;97.80;;;;;;4959265;28;20047;-58
2022/09/17 07:04:35;;;;;;;4.63;1.90;;;8.30;97.60;;;;;;4958735;28;20047;-57
2022/09/17 07:07:02;;;;;;;5.47;1.80;;;8.30;97.60;;;;;;4958587;29;20047;-58
2022/09/17 07:09:28;;;;;;;5.65;1.90;;;8.40;97.50;;;;;;4958589;28;20419;-57
2022/09/17 07:11:56;;;;;;;8.93;2.17;;;8.40;97.50;;;;;;4958402;28;20111;-58
2022/09/17 07:14:23;;;;;;;6.05;1.70;;;8.50;97.40;;;;;;4958579;29;20043;-58
2022/09/17 07:16:50;;;;;;;4.13;1.83;;;8.50;97.40;;;;;;4958976;28;20039;-55
2022/09/17 07:19:17;;;;;;;4.88;1.85;;;8.60;97.40;;;;;;4959033;28;20129;-58
2022/09/17 07:21:43;;;;;;;4.43;1.80;;;8.60;97.30;;;;;;4958410;28;20090;-56
2022/09/17 07:24:10;;;;;;;6.80;2.00;;;8.70;97.10;;;;;;4958476;28;20047;-57
2022/09/17 07:26:37;;;;;;;4.65;1.70;;;8.80;97.20;;;;;;4958628;28;20040;-52
2022/09/17 07:29:04;;;;;;;4.93;1.77;;;8.80;97.10;;;;;;4958205;28;20402;-56
2022/09/17 07:31:30;;;;;;;6.47;1.90;;;8.90;96.90;;;;;;4958643;29;20134;-55
2022/09/17 07:33:58;;;;;;;5.82;1.90;;;9.00;96.80;;;;;;4958551;28;20039;-57
2022/09/17 07:36:24;;;;;;;7.43;1.75;;;9.00;96.80;;;;;;4958330;28;20451;-58
2022/09/17 07:38:51;;;;;;;4.15;1.50;;;9.10;96.70;;;;;;4958541;28;20043;-56
2022/09/17 07:41:18;;;;;;;4.32;1.85;;;9.20;96.60;;;;;;4957462;28;20483;-57
2022/09/17 07:43:45;;;;;;;7.22;1.70;;;9.20;96.50;;;;;;4956596;29;20046;-57
2022/09/17 07:46:11;;;;;;;5.65;1.85;;;9.30;96.40;;;;;;4953981;29;20113;-57
2022/09/17 07:48:38;;;;;;;4.43;1.55;;;9.40;96.00;;;;;;4951642;29;20039;-58
2022/09/17 07:51:05;;;;;;;8.93;2.00;;;9.40;95.90;;;;;;4956652;29;20035;-56
2022/09/17 07:53:32;;;;;;;6.22;1.85;;;9.50;96.10;;;;;;4956543;28;20435;-56
2022/09/17 07:55:58;;;;;;;6.07;2.40;;;9.60;95.90;;;;;;4956538;28;20067;-56
2022/09/17 07:58:25;;;;;;;6.38;2.13;;;9.60;96.10;;;;;;4955369;28;20122;-62
2022/09/17 08:00:52;;;;;;;4.18;1.58;;;9.70;96.00;;;;;;4957834;28;20039;-54
2022/09/17 08:03:19;;;;;;;6.40;1.65;;;9.70;95.80;;;;;;4956009;28;20050;-58
2022/09/17 08:05:46;;;;;;;5.07;1.67;;;9.80;95.80;;;;;;4956014;28;20074;-56
2022/09/17 08:08:13;;;;;;;10.27;2.13;;;9.80;95.80;;;;;;4954557;28;20049;-54
2022/09/17 08:10:46;;;;;;;5.82;2.20;;;9.90;95.70;;;;;;4954998;28;20075;-57
2022/09/17 08:13:13;;;;;;;5.38;1.98;;;10.00;95.70;;;;;;4955768;28;20054;-54
2022/09/17 08:15:39;;;;;;;4.03;1.80;;;10.00;95.40;;;;;;4954764;29;20074;-56
2022/09/17 08:18:06;;;;;;;7.07;2.10;;;10.10;95.50;;;;;;4957522;29;20126;-56
2022/09/17 08:20:33;;;;;;;6.88;1.90;;;10.10;95.60;;;;;;4957216;28;20046;-55
2022/09/17 08:22:59;;;;;;;5.30;1.48;;;10.20;95.60;;;;;;4957551;28;20051;-57
2022/09/17 08:25:26;;;;;;;7.60;2.03;;;10.30;95.60;;;;;;4954843;29;20043;-56
2022/09/17 08:27:53;;;;;;;6.55;1.80;;;10.30;95.60;;;;;;4954977;28;20213;-56
2022/09/17 08:30:20;;;;;;;5.15;1.95;;;10.40;95.30;;;;;;4952024;28;20047;-58
2022/09/17 08:32:47;;;;;;;7.47;2.35;;;10.40;95.10;;;;;;4951730;29;20452;-59
2022/09/17 08:35:15;;;;;;;5.00;1.92;;;10.50;95.00;;;;;;4953522;29;20046;-58
2022/09/17 08:37:41;;;;;;;5.10;1.25;;;10.60;94.90;;;;;;4953350;29;20594;-54
2022/09/17 08:40:09;;;;;;;4.43;1.15;;;10.80;93.50;;;;;;4956710;28;20051;-53
2022/09/17 08:42:35;;;;;;;5.20;1.35;;;10.90;92.60;;;;;;4954675;28;20421;-57
2022/09/17 08:45:02;;;;;;;4.07;1.15;;;11.00;93.10;;;;;;4955572;28;20051;-58
2022/09/17 08:47:30;;;;;;;5.78;1.35;;;11.10;92.80;;;;;;4956794;28;20058;-57
2022/09/17 08:49:56;;;;;;;5.35;1.40;;;11.20;92.20;;;;;;4956724;28;20372;-58
2022/09/17 08:52:23;;;;;;;3.83;0.98;;;11.20;92.30;;;;;;4957398;28;20562;-57
2022/09/17 08:54:50;;;;;;;6.75;1.30;;;11.30;92.10;;;;;;4956879;28;20050;-58
2022/09/17 08:57:17;;;;;;;3.40;1.10;;;11.40;90.90;;;;;;4956681;29;20450;-56
2022/09/17 08:59:43;;;;;;;4.70;1.08;;;11.50;90.30;;;;;;4956641;28;20102;-59
2022/09/17 09:02:10;;;;;;;7.43;0.98;;;11.60;89.30;;;;;;4956826;28;20134;-59
2022/09/17 09:04:37;;;;;;;7.60;1.05;;;11.70;88.10;;;;;;4956445;28;20054;-55
2022/09/17 09:07:04;;;;;;;5.97;1.60;;;11.80;87.20;;;;;;4956683;28;20402;-57
2022/09/17 09:09:31;;;;;;;2.47;0.90;;;11.80;87.90;;;;;;4956518;28;20043;-59
2022/09/17 09:11:58;;;;;;;3.20;0.85;;;11.90;88.10;;;;;;4955211;29;20059;-56
2022/09/17 09:14:25;;;;;;;8.27;0.95;;;12.00;87.10;;;;;;4956391;28;20375;-56
2022/09/17 09:16:52;;;;;;;4.55;0.90;;;12.10;86.60;;;;;;4956347;28;20101;-54
2022/09/17 09:19:18;;;;;;;5.85;0.88;;;12.10;85.80;;;;;;4956137;28;20052;-54
2022/09/17 09:21:45;;;;;;;3.75;1.00;;;12.20;85.90;;;;;;4955273;28;20082;-55
2022/09/17 09:24:12;;;;;;;5.82;1.20;;;12.20;86.00;;;;;;4953899;28;20106;-57
2022/09/17 09:26:38;;;;;;;4.32;0.80;;;12.30;85.80;;;;;;4955540;28;20047;-57
2022/09/17 09:29:05;;;;;;;2.20;0.70;;;12.30;86.80;;;;;;4955259;28;20077;-55
2022/09/17 09:31:32;;;;;;;3.58;1.00;;;12.30;86.30;;;;;;4955721;29;20388;-55
2022/09/17 09:33:59;;;;;;;4.57;1.10;;;12.40;85.50;;;;;;4955522;29;20398;-58
2022/09/17 09:36:25;;;;;;;3.00;1.02;;;12.40;85.40;;;;;;4955578;29;20039;-56
2022/09/17 09:38:52;;;;;;;4.55;1.10;;;12.50;86.50;;;;;;4955641;28;20071;-53
2022/09/17 09:41:19;;;;;;;5.72;0.90;;;12.50;86.20;;;;;;4955512;29;20043;-57
2022/09/17 09:43:46;;;;;;;5.43;1.08;;;12.50;86.80;;;;;;4955463;28;20072;-53
2022/09/17 09:46:29;;;;;;;6.78;1.15;;;12.50;87.50;;;;;;4955530;28;20056;-58
2022/09/17 09:48:56;;;;;;;4.35;1.15;;;12.60;86.70;;;;;;4955369;29;20074;-57
2022/09/17 09:51:23;;;;;;;6.35;1.00;;;12.70;86.30;;;;;;4955422;28;20046;-58
2022/09/17 09:53:50;;;;;;;5.50;1.20;;;12.70;87.10;;;;;;4954754;29;20039;-58
2022/09/17 09:56:16;;;;;;;4.88;0.70;;;12.80;87.00;;;;;;4951192;29;20389;-56
2022/09/17 09:58:43;;;;;;;3.10;0.95;;;12.80;86.30;;;;;;4949135;29;20046;-58
2022/09/17 10:01:10;;;;;;;4.53;1.35;;;12.80;86.30;;;;;;4955375;28;20487;-56
2022/09/17 10:03:37;;;;;;;4.80;1.00;;;12.90;86.80;;;;;;4954486;28;20043;-56
2022/09/17 10:06:04;;;;;;;5.80;0.93;;;12.90;87.30;;;;;;4955251;29;20101;-57
2022/09/17 10:08:31;;;;;;;8.20;1.05;;;13.00;86.80;;;;;;4955223;29;20047;-58
2022/09/17 10:10:58;;;;;;;3.22;0.90;;;13.00;85.50;;;;;;4954422;28;20160;-59
2022/09/17 10:13:24;;;;;;;3.28;0.85;;;13.10;84.40;;;;;;4955302;28;20550;-57
2022/09/17 10:15:51;;;;;;;4.18;0.90;;;13.10;84.10;;;;;;4954559;28;20102;-55
2022/09/17 10:18:18;;;;;;;5.43;1.00;;;13.20;84.00;;;;;;4955191;28;20055;-57
2022/09/17 10:20:45;;;;;;;5.30;0.82;;;13.30;85.00;;;;;;4954660;28;20106;-60
2022/09/17 10:23:11;;;;;;;3.97;0.80;;;13.40;84.70;;;;;;4954909;28;20402;-59
2022/09/17 10:25:38;;;;;;;3.58;0.80;;;13.40;84.10;;;;;;4954903;29;20074;-59
2022/09/17 10:28:05;;;;;;;4.25;1.00;;;13.50;84.20;;;;;;4954964;29;20056;-55
2022/09/17 10:30:31;;;;;;;5.43;1.00;;;13.50;83.90;;;;;;4954892;28;20043;-55
2022/09/17 10:32:58;;;;;;;3.28;0.70;;;13.60;83.80;;;;;;4960170;28;20404;-58
2022/09/17 10:35:25;;;;;;;4.25;0.90;;;13.60;83.20;;;;;;4961320;28;20118;-56
2022/09/17 10:37:52;;;;;;;5.82;0.80;;;13.60;83.40;;;;;;4961392;28;20071;-56
2022/09/17 10:40:18;;;;;;;3.38;0.90;;;13.60;83.70;;;;;;4961371;29;20042;-57
2022/09/17 10:42:45;;;;;;;2.72;0.85;;;13.60;83.30;;;;;;4960526;29;20593;-56
2022/09/17 10:45:12;;;;;;;3.70;0.60;;;13.70;83.50;;;;;;4961230;28;20043;-55
2022/09/17 10:47:39;;;;;;;4.38;1.20;;;13.70;84.00;;;;;;4961147;28;20043;-56
2022/09/17 10:50:05;;;;;;;5.38;0.70;;;13.70;83.50;;;;;;4960668;28;20043;-56
2022/09/17 10:52:33;;;;;;;8.25;1.02;;;13.70;83.70;;;;;;4961162;28;20125;-60
2022/09/17 10:54:59;;;;;;;5.65;0.77;;;13.80;83.60;;;;;;4961074;28;20042;-59
2022/09/17 10:57:26;;;;;;;2.90;0.95;;;13.90;85.30;;;;;;4961236;28;20054;-55
2022/09/17 10:59:53;;;;;;;4.55;1.08;;;13.90;83.70;;;;;;4956529;28;20078;-53
2022/09/17 11:02:20;;;;;;;4.05;0.80;;;14.00;83.60;;;;;;4960011;29;20047;-56
2022/09/17 11:04:47;;;;;;;3.95;0.73;;;14.00;84.00;;;;;;4956443;28;20072;-55
2022/09/17 11:07:14;;;;;;;4.00;0.80;;;14.00;82.60;;;;;;4958421;29;20471;-56
2022/09/17 11:09:40;;;;;;;3.40;0.75;;;14.00;82.60;;;;;;4961127;28;20122;-57
2022/09/17 11:12:07;;;;;;;2.70;1.10;;;14.00;82.40;;;;;;4960971;29;20062;-58
2022/09/17 11:14:36;;;;;;;2.15;1.00;;;14.00;82.90;;;;;;4960464;28;20090;-57
2022/09/17 11:17:03;;;;;;;2.50;0.85;;;14.10;82.70;;;;;;4960846;28;20122;-59
2022/09/17 11:19:30;;;;;;;2.17;0.80;;;14.20;83.60;;;;;;4960142;28;20130;-56
2022/09/17 11:21:56;;;;;;;4.30;0.80;;;14.20;82.10;;;;;;4961185;28;20126;-58
2022/09/17 11:24:23;;;;;;;3.72;0.85;;;14.30;82.70;;;;;;4960941;28;20550;-55
2022/09/17 11:26:50;;;;;;;3.55;0.93;;;14.30;82.50;;;;;;4961110;28;20466;-56
2022/09/17 11:29:16;;;;;;;3.67;0.82;;;14.30;81.70;;;;;;4960361;28;20051;-60
2022/09/17 11:31:43;;;;;;;3.05;0.82;;;14.30;82.50;;;;;;4960967;28;20046;-54
2022/09/17 11:34:10;;;;;;;3.55;1.00;;;14.50;82.20;;;;;;4960963;28;20084;-59
2022/09/17 11:36:37;;;;;;;4.13;0.90;;;14.50;81.40;;;;;;4961203;29;20430;-57
2022/09/17 11:39:03;;;;;;;3.70;1.02;;;14.50;81.50;;;;;;4958192;28;20055;-57
2022/09/17 11:41:30;;;;;;;5.57;1.05;;;14.50;81.10;;;;;;4959430;28;20043;-56
2022/09/17 11:43:57;;;;;;;5.70;0.80;;;14.60;80.60;;;;;;4957629;28;20043;-54
2022/09/17 11:46:24;;;;;;;3.53;0.73;;;14.60;81.50;;;;;;4957165;29;20043;-59
2022/09/17 11:48:50;;;;;;;2.95;1.52;;;14.60;81.80;;;;;;4957908;29;20035;-57
2022/09/17 11:51:17;;;;;;;3.05;0.93;;;14.70;81.90;;;;;;4957059;28;20035;-57
2022/09/17 11:53:44;;;;;;;3.33;0.90;;;14.80;80.90;;;;;;4957599;28;20047;-55
2022/09/17 11:56:11;;;;;;;4.03;1.02;;;14.70;81.80;;;;;;4957655;28;20122;-60
2022/09/17 11:58:37;;;;;;;7.13;1.20;;;14.80;80.90;;;;;;4957625;29;20099;-59
2022/09/17 12:01:04;;;;;;;3.50;0.93;;;14.80;81.70;;;;;;4955661;28;20153;-59
2022/09/17 12:03:31;;;;;;;3.63;0.90;;;14.80;81.00;;;;;;4957617;28;20058;-56
2022/09/17 12:05:58;;;;;;;3.47;1.20;;;14.80;81.30;;;;;;4957570;28;20043;-56
2022/09/17 12:08:25;;;;;;;3.97;1.00;;;14.90;81.50;;;;;;4956465;28;20109;-58
2022/09/17 12:10:52;;;;;;;2.88;0.90;;;14.90;81.40;;;;;;4957154;29;20059;-57
2022/09/17 12:13:19;;;;;;;3.25;1.15;;;14.90;82.00;;;;;;4956699;28;20577;-57
2022/09/17 12:15:46;;;;;;;5.03;1.00;;;14.90;81.80;;;;;;4957381;29;20479;-59
2022/09/17 12:18:18;;;;;;;2.35;0.82;;;15.00;81.40;;;;;;4957131;29;20049;-57
2022/09/17 12:20:58;;;;;;;2.95;0.77;;;15.00;81.80;;;;;;4956725;29;20043;-57
2022/09/17 12:23:25;;;;;;;3.00;1.00;;;15.00;81.40;;;;;;4955146;28;20070;-59
2022/09/17 12:25:51;;;;;;;2.72;1.10;;;15.00;82.20;;;;;;4957003;29;20434;-57
2022/09/17 12:28:18;;;;;;;2.55;0.90;;;15.00;81.90;;;;;;4956946;29;20542;-55
2022/09/17 12:30:45;;;;;;;3.85;0.77;;;15.10;82.30;;;;;;4956339;28;20048;-56
2022/09/17 12:33:11;;;;;;;4.63;1.10;;;15.10;80.40;;;;;;4956822;28;20131;-57
2022/09/17 12:35:38;;;;;;;3.95;1.70;;;15.10;80.10;;;;;;4956482;28;20455;-58
2022/09/17 12:38:25;;;;;;;5.35;0.90;;;15.10;79.80;;;;;;4956871;29;20110;-58
2022/09/17 12:40:51;;;;;;;3.58;0.90;;;15.10;80.90;;;;;;4956660;28;20043;-55
2022/09/17 12:43:18;;;;;;;5.50;0.90;;;15.00;80.10;;;;;;4956003;28;20058;-59
2022/09/17 12:45:46;;;;;;;7.03;0.80;;;15.10;80.00;;;;;;4956199;29;20058;-58
2022/09/17 12:48:16;;;;;;;3.88;0.98;;;15.10;78.40;;;;;;4956017;29;20476;-57